MMOX/OAX METAR and TAF weather

Enter ICAO airport designator
Station Type Date Time Source
MMOX METAR 2019/10/20 18:40 UTC NOAA

MMOX 201840Z 22007KT 12SM FEW030 BKN210 26/14 A3014 RMK 8/108


Station Type Date Time Source
MMOX Decoded METAR 2019/10/20 18:40 UTC NOAA

Oaxaca / Xoxocotlan, Mexico (MMOX) 16-58N 096-44W
Oct 20, 2019 - 02:40 PM EDT / 2019.10.20 1840 UTC
Wind: from the SW (220 degrees) at 8 MPH (7 KT):0
Visibility: 12 mile(s):0
Sky conditions: mostly cloudy
Temperature: 78 F (26 C)
Dew Point: 57 F (14 C)
Relative Humidity: 47%
Pressure (altimeter): 30.14 in. Hg (1020 hPa)
ob: MMOX 201840Z 22007KT 12SM FEW030 BKN210 26/14 A3014 RMK 8/108
cycle: 18

Station Type Date Time Source
MMOX TAF 2019/10/20 18:40 UTC NOAA

TAF MMOX 201633Z 2018/2118 06005KT P6SM SCT030 BKN250
FM202100 14012KT P6SM SCT025 BKN250
TEMPO 2022/2102 VC CB
FM210600 00000KT P6SM SCT100 BKN250
TEMPO 2112/2116 BKN015

Example: see airport list